createdAt,value
2023-04-25T00:03:34.905Z,5.75
2023-04-25T00:07:38.137Z,5.70
2023-04-25T00:11:42.242Z,5.80
2023-04-25T00:15:47.386Z,5.66
2023-04-25T00:19:50.945Z,5.58
2023-04-25T00:23:54.525Z,5.60
2023-04-25T00:27:57.442Z,5.59
2023-04-25T00:32:02.770Z,5.66
2023-04-25T00:36:06.107Z,5.79
2023-04-25T00:40:09.538Z,5.87
2023-04-25T00:44:14.497Z,6.02
2023-04-25T00:48:19.486Z,6.05
2023-04-25T00:52:23.501Z,6.02
2023-04-25T00:56:26.878Z,6.05
2023-04-25T01:00:29.976Z,5.96
2023-04-25T01:04:34.517Z,5.90
2023-04-25T01:08:39.501Z,5.76
2023-04-25T01:12:43.069Z,5.80
2023-04-25T01:16:46.964Z,5.73
2023-04-25T01:20:52.639Z,5.68
2023-04-25T01:24:58.293Z,5.68
2023-04-25T01:29:01.799Z,5.70
2023-04-25T01:33:05.653Z,5.57
2023-04-25T01:37:08.715Z,5.43
2023-04-25T01:41:13.206Z,5.40
2023-04-25T01:45:16.504Z,5.48
2023-04-25T01:49:19.546Z,5.54
2023-04-25T01:53:23.777Z,5.56
2023-04-25T01:57:28.203Z,5.39
2023-04-25T02:01:31.572Z,5.47
2023-04-25T02:05:49.360Z,5.45
2023-04-25T02:09:52.641Z,5.46
2023-04-25T02:13:58.328Z,5.45
2023-04-25T02:18:14.150Z,5.42
2023-04-25T02:22:17.694Z,5.43
2023-04-25T02:26:20.818Z,5.43
2023-04-25T02:30:25.080Z,5.41
2023-04-25T02:34:28.074Z,5.37
2023-04-25T02:38:31.119Z,5.43
2023-04-25T02:42:34.100Z,5.48
2023-04-25T02:46:39.736Z,5.42
2023-04-25T02:50:43.324Z,5.43
2023-04-25T02:54:46.242Z,5.35
2023-04-25T02:58:49.485Z,5.34
2023-04-25T03:02:53.971Z,5.31
2023-04-25T03:06:58.085Z,5.28
2023-04-25T03:11:01.300Z,5.27
2023-04-25T03:15:04.834Z,5.28
2023-04-25T03:19:09.369Z,5.30
2023-04-25T03:23:12.456Z,5.24
2023-04-25T03:27:18.421Z,5.28
2023-04-25T03:31:21.408Z,5.32
2023-04-25T03:35:26.186Z,5.36
2023-04-25T03:39:29.699Z,5.40
2023-04-25T03:43:33.236Z,5.52
2023-04-25T03:47:41.469Z,5.48
2023-04-25T03:51:46.592Z,5.47
2023-04-25T03:55:50.175Z,5.43
2023-04-25T03:59:53.157Z,5.43
2023-04-25T04:03:57.042Z,5.44
2023-04-25T04:08:03.143Z,5.40
2023-04-25T04:12:07.149Z,5.44
2023-04-25T04:16:11.220Z,5.45
2023-04-25T04:20:14.443Z,5.49
2023-04-25T04:24:19.432Z,5.48
2023-04-25T04:28:37.254Z,5.55
2023-04-25T04:32:50.676Z,5.62
2023-04-25T04:36:53.839Z,5.65
2023-04-25T04:40:58.999Z,5.73
2023-04-25T04:45:10.075Z,5.77
2023-04-25T04:49:33.364Z,5.84
2023-04-25T04:53:59.310Z,5.84
2023-04-25T04:58:18.723Z,5.89
2023-04-25T05:02:35.069Z,5.90
2023-04-25T05:06:56.890Z,5.81
2023-04-25T05:11:20.007Z,5.85
2023-04-25T05:15:41.407Z,5.83
2023-04-25T05:20:08.102Z,5.97
2023-04-25T05:24:29.550Z,6.11
2023-04-25T05:29:00.901Z,6.17
2023-04-25T05:33:20.026Z,6.33
2023-04-25T05:37:23.042Z,6.29
2023-04-25T05:41:32.211Z,6.37
2023-04-25T05:45:39.331Z,6.49
2023-04-25T05:50:03.167Z,6.68
2023-04-25T05:54:18.561Z,6.69
2023-04-25T05:58:21.618Z,6.77
2023-04-25T06:02:24.842Z,6.88
2023-04-25T06:06:31.287Z,6.92
2023-04-25T06:10:36.026Z,6.96
2023-04-25T06:14:39.269Z,6.99
2023-04-25T06:18:42.300Z,7.08
2023-04-25T06:22:47.139Z,7.09
2023-04-25T06:26:50.633Z,7.33
2023-04-25T06:30:53.656Z,7.49
2023-04-25T06:34:57.203Z,7.33
2023-04-25T06:39:01.682Z,7.31
2023-04-25T06:43:04.785Z,7.39
2023-04-25T06:47:26.150Z,7.55
2023-04-25T06:51:31.152Z,7.52
2023-04-25T06:55:36.457Z,7.44
2023-04-25T06:59:52.858Z,7.61
2023-04-25T07:03:56.049Z,7.75
2023-04-25T07:07:59.933Z,7.67
2023-04-25T07:12:04.488Z,7.93
2023-04-25T07:16:07.725Z,7.71
2023-04-25T07:20:12.792Z,8.05
2023-04-25T07:24:16.595Z,8.33
2023-04-25T07:28:24.422Z,8.15
2023-04-25T07:32:27.690Z,8.41
2023-04-25T07:36:32.040Z,8.53
2023-04-25T07:40:35.142Z,8.57
2023-04-25T07:44:44.033Z,8.39
2023-04-25T07:48:50.404Z,8.78
2023-04-25T07:52:53.615Z,8.48
2023-04-25T07:57:12.351Z,8.71
2023-04-25T08:01:17.632Z,9.08
2023-04-25T08:05:31.781Z,9.13
2023-04-25T08:09:40.611Z,9.16
2023-04-25T08:13:49.143Z,8.84
2023-04-25T08:17:53.771Z,8.83
2023-04-25T08:21:57.533Z,9.00
2023-04-25T08:26:08.225Z,8.76
2023-04-25T08:30:14.638Z,8.74
2023-04-25T08:34:21.116Z,9.20
2023-04-25T08:38:25.775Z,9.04
2023-04-25T08:42:31.267Z,9.62
2023-04-25T08:46:35.117Z,10.76
2023-04-25T08:50:52.751Z,10.81
2023-04-25T08:54:56.537Z,9.80
2023-04-25T08:58:59.928Z,9.41
2023-04-25T09:03:03.897Z,10.51
2023-04-25T09:07:11.185Z,11.03
2023-04-25T09:11:15.972Z,11.31
2023-04-25T09:15:20.733Z,10.18
2023-04-25T09:19:43.056Z,9.97
2023-04-25T09:23:54.216Z,10.55
2023-04-25T09:27:57.994Z,12.71
2023-04-25T09:32:14.974Z,12.20
2023-04-25T09:36:19.005Z,11.80
2023-04-25T09:40:50.750Z,11.11
2023-04-25T09:45:03.000Z,10.82
2023-04-25T09:49:08.939Z,9.82
2023-04-25T09:53:19.973Z,9.63
2023-04-25T09:57:40.852Z,9.84
2023-04-25T10:01:45.350Z,9.61
2023-04-25T10:05:55.746Z,9.98
2023-04-25T10:10:01.543Z,10.32
2023-04-25T10:14:06.951Z,10.12
2023-04-25T10:18:10.716Z,10.00
2023-04-25T10:22:15.229Z,10.23
2023-04-25T10:26:18.322Z,9.83
2023-04-25T10:30:22.566Z,10.20
2023-04-25T10:34:40.695Z,9.90
2023-04-25T10:38:44.434Z,10.32
2023-04-25T10:42:47.296Z,11.28
2023-04-25T10:46:51.642Z,10.77
2023-04-25T10:51:08.596Z,11.49
2023-04-25T10:55:11.617Z,12.52
2023-04-25T10:59:14.911Z,12.08
2023-04-25T11:03:19.680Z,14.28
2023-04-25T11:07:25.864Z,12.31
2023-04-25T11:11:28.726Z,13.65
2023-04-25T11:15:31.590Z,12.63
2023-04-25T11:19:36.027Z,11.92
2023-04-25T11:23:39.306Z,10.86
2023-04-25T11:27:51.670Z,10.86
2023-04-25T11:31:54.754Z,10.30
2023-04-25T11:35:59.254Z,10.19
2023-04-25T11:40:02.168Z,10.05
2023-04-25T11:44:05.460Z,9.81
2023-04-25T11:48:08.531Z,9.67
2023-04-25T11:52:13.004Z,9.72
2023-04-25T11:56:16.182Z,9.62
2023-04-25T12:00:21.132Z,10.66
2023-04-25T12:04:24.989Z,11.27
2023-04-25T12:08:29.493Z,12.71
2023-04-25T12:12:34.501Z,12.65
2023-04-25T12:16:44.324Z,12.16
2023-04-25T12:20:47.644Z,12.29
2023-04-25T12:24:54.205Z,12.81
2023-04-25T12:28:57.225Z,12.68
2023-04-25T12:33:00.262Z,14.11
2023-04-25T12:37:03.242Z,12.51
2023-04-25T12:41:07.541Z,13.09
2023-04-25T12:45:10.899Z,12.39
2023-04-25T12:49:18.539Z,11.79
2023-04-25T12:53:22.614Z,12.34
2023-04-25T12:57:26.854Z,13.92
2023-04-25T13:01:29.997Z,13.76
2023-04-25T13:05:32.914Z,12.05
2023-04-25T13:09:35.926Z,10.63
2023-04-25T13:13:41.167Z,10.80
2023-04-25T13:17:44.437Z,10.90
2023-04-25T13:21:47.469Z,10.94
2023-04-25T13:25:50.464Z,10.36
2023-04-25T13:29:55.180Z,10.52
2023-04-25T13:33:58.079Z,10.50
2023-04-25T13:38:01.267Z,11.19
2023-04-25T13:42:04.226Z,12.01
2023-04-25T13:46:09.728Z,11.86
2023-04-25T13:50:16.904Z,12.31
2023-04-25T13:54:19.798Z,12.69
2023-04-25T13:58:23.460Z,12.98
2023-04-25T14:02:27.981Z,13.49
2023-04-25T14:06:30.884Z,12.06
2023-04-25T14:10:33.910Z,11.79
2023-04-25T14:14:36.825Z,12.79
2023-04-25T14:18:41.082Z,13.55
2023-04-25T14:22:44.806Z,15.09
2023-04-25T14:26:47.818Z,13.55
2023-04-25T14:30:50.696Z,11.67
2023-04-25T14:34:54.925Z,11.45
2023-04-25T14:38:58.054Z,12.20
2023-04-25T14:43:00.919Z,14.68
2023-04-25T14:47:03.952Z,14.08
2023-04-25T14:51:08.484Z,11.60
2023-04-25T14:55:11.569Z,11.31
2023-04-25T14:59:14.525Z,12.64
2023-04-25T15:03:18.541Z,14.52
2023-04-25T15:07:23.112Z,14.39
2023-04-25T15:11:26.037Z,15.09
2023-04-25T15:15:29.078Z,14.44
2023-04-25T15:19:31.942Z,13.40
2023-04-25T15:23:36.269Z,13.35
2023-04-25T15:27:42.514Z,12.83
2023-04-25T15:31:46.732Z,12.38
2023-04-25T15:35:49.742Z,11.76
2023-04-25T15:40:02.612Z,13.34
2023-04-25T15:44:05.639Z,13.09
2023-04-25T15:48:08.712Z,13.27
2023-04-25T15:52:11.732Z,11.99
2023-04-25T15:56:16.009Z,11.81
2023-04-25T16:00:21.278Z,11.43
2023-04-25T16:04:25.314Z,11.08
2023-04-25T16:08:29.767Z,11.11
2023-04-25T16:12:34.285Z,11.84
2023-04-25T16:16:37.321Z,12.70
2023-04-25T16:20:40.801Z,12.56
2023-04-25T16:24:43.741Z,11.96
2023-04-25T16:28:48.140Z,12.68
2023-04-25T16:32:51.031Z,13.19
2023-04-25T16:36:55.714Z,12.28
2023-04-25T16:40:59.688Z,12.74
2023-04-25T16:45:05.064Z,12.27
2023-04-25T16:49:08.337Z,12.28
2023-04-25T16:53:11.514Z,12.63
2023-04-25T16:57:14.792Z,13.38
2023-04-25T17:01:20.322Z,12.75
2023-04-25T17:05:23.612Z,12.72
2023-04-25T17:09:28.698Z,12.59
2023-04-25T17:13:33.173Z,12.78
2023-04-25T17:17:37.737Z,12.20
2023-04-25T17:21:41.123Z,11.54
2023-04-25T17:25:44.396Z,12.30
2023-04-25T17:29:47.345Z,11.93
2023-04-25T17:33:51.867Z,10.96
2023-04-25T17:37:54.902Z,10.55
2023-04-25T17:46:01.304Z,10.68
2023-04-25T17:50:07.661Z,10.72
2023-04-25T17:54:10.713Z,11.39
2023-04-25T17:58:15.117Z,11.17
2023-04-25T18:02:18.227Z,11.47
2023-04-25T18:06:25.024Z,10.65
2023-04-25T18:10:28.019Z,10.74
2023-04-25T18:14:34.972Z,10.65
2023-04-25T18:18:38.117Z,10.25
2023-04-25T18:22:42.885Z,9.73
2023-04-25T18:26:45.920Z,9.61
2023-04-25T18:30:50.328Z,9.18
2023-04-25T18:34:53.226Z,8.89
2023-04-25T18:38:59.640Z,8.80
2023-04-25T18:43:06.178Z,8.65
2023-04-25T18:47:10.226Z,8.38
2023-04-25T18:51:14.419Z,8.20
2023-04-25T18:55:18.944Z,8.14
2023-04-25T18:59:22.970Z,8.06
2023-04-25T19:03:27.276Z,7.95
2023-04-25T19:07:30.971Z,7.76
2023-04-25T19:11:35.483Z,7.62
2023-04-25T19:15:39.517Z,7.54
2023-04-25T19:19:42.610Z,7.41
2023-04-25T19:23:45.524Z,7.27
2023-04-25T19:27:49.961Z,7.15
2023-04-25T19:31:52.944Z,7.10
2023-04-25T19:35:55.968Z,7.04
2023-04-25T19:39:59.052Z,6.91
2023-04-25T19:44:04.753Z,6.74
2023-04-25T19:48:10.462Z,6.64
2023-04-25T19:52:14.974Z,6.54
2023-04-25T19:56:18.164Z,6.44
2023-04-25T20:00:22.654Z,6.43
2023-04-25T20:04:26.421Z,6.23
2023-04-25T20:08:29.371Z,6.33
2023-04-25T20:12:32.375Z,6.18
2023-04-25T20:16:36.690Z,6.09
2023-04-25T20:20:41.117Z,6.05
2023-04-25T20:24:43.994Z,5.82
2023-04-25T20:28:47.569Z,5.73
2023-04-25T20:32:51.919Z,5.54
2023-04-25T20:36:56.173Z,5.45
2023-04-25T20:40:59.734Z,5.31
2023-04-25T20:45:08.281Z,5.25
2023-04-25T20:49:12.968Z,5.25
2023-04-25T20:53:16.808Z,5.03
2023-04-25T20:57:19.920Z,4.89
2023-04-25T21:01:23.024Z,4.86
2023-04-25T21:05:27.318Z,4.85
2023-04-25T21:09:30.554Z,4.53
2023-04-25T21:13:33.742Z,4.50
2023-04-25T21:17:36.732Z,4.40
2023-04-25T21:21:41.278Z,4.28
2023-04-25T21:25:44.367Z,4.22
2023-04-25T21:29:47.412Z,4.17
2023-04-25T21:33:50.347Z,4.05
2023-04-25T21:37:54.873Z,3.98
2023-04-25T21:42:00.066Z,3.91
2023-04-25T21:50:09.337Z,3.77
2023-04-25T21:54:13.636Z,3.71
2023-04-25T21:58:16.693Z,3.47
2023-04-25T22:02:19.991Z,3.36
2023-04-25T22:06:23.121Z,3.42
2023-04-25T22:10:27.454Z,3.44
2023-04-25T22:14:31.683Z,3.50
2023-04-25T22:18:34.949Z,3.41
2023-04-25T22:22:37.950Z,3.51
2023-04-25T22:26:42.764Z,3.47
2023-04-25T22:30:45.789Z,3.45
2023-04-25T22:34:48.969Z,3.33
2023-04-25T22:38:53.140Z,3.28
2023-04-25T22:42:57.893Z,3.10
2023-04-25T22:47:01.852Z,3.02
2023-04-25T22:51:06.246Z,2.83
2023-04-25T22:55:10.551Z,2.95
2023-04-25T22:59:15.809Z,2.98
2023-04-25T23:03:19.349Z,2.79
2023-04-25T23:07:22.363Z,2.91
2023-04-25T23:11:25.282Z,2.81
2023-04-25T23:15:31.425Z,2.70
2023-04-25T23:19:35.023Z,2.59
2023-04-25T23:23:38.209Z,2.62
2023-04-25T23:27:41.785Z,2.51
2023-04-25T23:31:46.147Z,2.35
2023-04-25T23:35:49.074Z,2.37
2023-04-25T23:39:52.013Z,2.29
2023-04-25T23:43:54.921Z,2.28
2023-04-25T23:47:59.296Z,2.35
2023-04-25T23:52:03.762Z,2.28
2023-04-25T23:56:06.786Z,2.23
